Time;durP1;ratioP1;P1;durP2;ratioP2;P2;SDS_P1;SDS_P2;PMS_P1;PMS_P2;Temp;Humidity;BMP_temperature;BMP_pressure;BME280_temperature;BME280_humidity;BME280_pressure;Samples;Min_cycle;Max_cycle;Signal;HPM_P1;HPM_P2
2023/08/23 00:02:21;;;;;;;1999.90;999.90;;;22.60;70.80;;;;;;5084902;28;20093;-75
2023/08/23 00:04:49;;;;;;;1999.90;999.90;;;22.70;71.10;;;;;;5080973;28;20055;-73
2023/08/23 00:07:14;;;;;;;1999.90;999.90;;;22.70;71.30;;;;;;5084970;28;20082;-74
2023/08/23 00:09:40;;;;;;;1999.90;999.90;;;22.70;71.10;;;;;;5080866;28;20108;-74
2023/08/23 00:12:06;;;;;;;1999.90;999.90;;;22.80;70.40;;;;;;5084069;28;20398;-73
2023/08/23 00:14:31;;;;;;;1999.90;999.90;;;22.80;70.80;;;;;;5083504;28;20027;-73
2023/08/23 00:16:57;;;;;;;1999.90;999.90;;;22.80;71.10;;;;;;5084899;28;20039;-74
2023/08/23 00:19:23;;;;;;;1999.90;999.90;;;22.70;71.50;;;;;;5081502;28;20029;-74
2023/08/23 00:21:49;;;;;;;1999.90;999.90;;;22.70;70.60;;;;;;5082339;28;20519;-74
2023/08/23 00:24:14;;;;;;;1999.90;999.90;;;22.80;70.30;;;;;;5085900;28;20525;-73
2023/08/23 00:26:40;;;;;;;1999.90;999.90;;;22.80;69.90;;;;;;5081002;28;20028;-74
2023/08/23 00:29:05;;;;;;;1999.90;999.90;;;22.80;70.60;;;;;;5084684;28;20028;-73
2023/08/23 00:31:31;;;;;;;1999.90;999.90;;;22.80;70.00;;;;;;5075239;28;20154;-74
2023/08/23 00:33:57;;;;;;;1999.90;999.90;;;22.70;70.90;;;;;;5079690;28;20043;-73
2023/08/23 00:36:22;;;;;;;1999.90;999.90;;;22.40;72.30;;;;;;5073412;28;20407;-73
2023/08/23 00:38:48;;;;;;;1999.90;999.90;;;22.20;73.70;;;;;;5090136;28;20032;-74
2023/08/23 00:41:14;;;;;;;1999.90;999.90;;;22.30;72.40;;;;;;5085479;28;20054;-73
2023/08/23 00:43:39;;;;;;;1999.90;999.90;;;22.30;72.10;;;;;;5080849;28;20037;-73
2023/08/23 00:46:05;;;;;;;1999.90;999.90;;;22.30;72.60;;;;;;5083465;28;20049;-73
2023/08/23 00:48:31;;;;;;;1999.90;999.90;;;22.30;72.50;;;;;;5078341;28;20517;-73
2023/08/23 00:50:57;;;;;;;1999.90;999.90;;;22.20;72.90;;;;;;5075848;28;20029;-73
2023/08/23 00:53:23;;;;;;;1999.90;999.90;;;22.20;73.30;;;;;;5083655;28;20148;-73
2023/08/23 00:55:48;;;;;;;1999.90;999.90;;;22.30;72.90;;;;;;5077986;28;20103;-73
2023/08/23 00:58:14;;;;;;;1999.90;999.90;;;22.30;72.50;;;;;;5081240;28;20036;-74
2023/08/23 01:00:41;;;;;;;1999.90;999.90;;;22.30;72.50;;;;;;5067106;28;20032;-73
2023/08/23 01:03:07;;;;;;;1999.90;999.90;;;22.30;72.20;;;;;;5079038;28;20036;-74
2023/08/23 01:05:50;;;;;;;1999.90;999.90;;;22.30;72.00;;;;;;5083949;28;20028;-74
2023/08/23 01:08:36;;;;;;;1999.90;999.90;;;22.30;72.20;;;;;;5081694;28;20026;-74
2023/08/23 01:11:07;;;;;;;1999.90;999.90;;;22.20;72.30;;;;;;5084434;28;20071;-74
2023/08/23 01:13:57;;;;;;;1999.90;999.90;;;22.20;72.50;;;;;;5083650;28;20032;-74
2023/08/23 01:16:25;;;;;;;1999.90;999.90;;;22.10;72.60;;;;;;5083855;28;20032;-74
2023/08/23 01:18:52;;;;;;;1999.90;999.90;;;22.10;72.60;;;;;;5089766;28;20093;-74
2023/08/23 01:21:25;;;;;;;1999.90;999.90;;;22.10;72.70;;;;;;5079672;28;20051;-73
2023/08/23 01:23:51;;;;;;;1999.90;999.90;;;22.00;73.30;;;;;;5087340;28;20085;-73
2023/08/23 01:26:17;;;;;;;1999.90;999.90;;;22.10;73.00;;;;;;5078425;28;20036;-73
2023/08/23 01:28:42;;;;;;;1999.90;999.90;;;22.10;72.70;;;;;;5085995;28;20032;-73
2023/08/23 01:31:10;;;;;;;1999.90;999.90;;;22.10;72.30;;;;;;5069009;28;20574;-73
2023/08/23 01:33:51;;;;;;;1999.90;999.90;;;22.10;71.90;;;;;;5085857;28;20074;-73
2023/08/23 01:36:27;;;;;;;1999.90;999.90;;;22.10;72.20;;;;;;5082225;28;20498;-74
2023/08/23 01:38:55;;;;;;;1999.90;999.90;;;22.10;72.30;;;;;;5084071;28;20024;-73
2023/08/23 01:41:22;;;;;;;1999.90;999.90;;;21.80;73.80;;;;;;5082553;28;20028;-72
2023/08/23 01:43:47;;;;;;;1999.90;999.90;;;21.70;74.90;;;;;;5082193;28;20482;-73
2023/08/23 01:46:14;;;;;;;1999.90;999.90;;;21.70;74.80;;;;;;5085685;28;20034;-73
2023/08/23 01:48:39;;;;;;;1999.90;999.90;;;21.60;74.80;;;;;;5079738;28;20371;-73
2023/08/23 01:51:06;;;;;;;1999.90;999.90;;;21.40;75.30;;;;;;5078420;28;20090;-73
2023/08/23 01:53:32;;;;;;;1999.90;999.90;;;21.40;75.40;;;;;;5084131;28;20044;-73
2023/08/23 01:55:59;;;;;;;1999.90;999.90;;;21.40;75.70;;;;;;5081909;28;20586;-73
2023/08/23 01:58:25;;;;;;;1999.90;999.90;;;21.50;75.60;;;;;;5078647;28;20062;-74
2023/08/23 02:00:51;;;;;;;1999.90;999.90;;;21.50;75.00;;;;;;5096913;28;20046;-73
2023/08/23 02:03:18;;;;;;;1999.90;999.90;;;21.50;74.90;;;;;;5081207;28;20039;-73
2023/08/23 02:05:44;;;;;;;1999.90;999.90;;;21.50;74.40;;;;;;5079938;28;20033;-73
2023/08/23 02:08:09;;;;;;;1999.90;999.90;;;21.50;74.80;;;;;;5089030;28;20062;-73
2023/08/23 02:10:35;;;;;;;1999.90;999.90;;;21.40;74.50;;;;;;5081145;28;20033;-73
2023/08/23 02:13:04;;;;;;;1999.90;999.90;;;21.20;76.00;;;;;;5086094;28;20458;-73
2023/08/23 02:15:30;;;;;;;1999.90;999.90;;;21.00;76.90;;;;;;5077301;28;20032;-74
2023/08/23 02:17:56;;;;;;;1999.90;999.90;;;21.10;76.50;;;;;;5084489;28;20095;-74
2023/08/23 02:20:21;;;;;;;1999.90;999.90;;;21.10;76.60;;;;;;5076007;28;20033;-74
2023/08/23 02:22:47;;;;;;;1999.90;999.90;;;21.00;77.50;;;;;;5074374;28;20037;-73
2023/08/23 02:25:12;;;;;;;1999.90;999.90;;;20.80;77.90;;;;;;5078234;28;20031;-74
2023/08/23 02:27:38;;;;;;;1999.90;999.90;;;20.80;78.00;;;;;;5084185;28;20138;-73
2023/08/23 02:30:04;;;;;;;1999.90;999.90;;;20.80;78.00;;;;;;5086242;28;20081;-73
2023/08/23 02:32:30;;;;;;;1999.90;999.90;;;20.70;78.50;;;;;;5086515;28;20444;-73
2023/08/23 02:34:56;;;;;;;1999.90;999.90;;;20.60;79.40;;;;;;5083611;28;20060;-73
2023/08/23 02:37:21;;;;;;;1999.90;999.90;;;20.60;79.10;;;;;;5083199;28;20438;-73
2023/08/23 02:39:47;;;;;;;1999.90;999.90;;;20.60;78.90;;;;;;5081488;28;20028;-74
2023/08/23 02:42:13;;;;;;;1999.90;999.90;;;20.60;78.50;;;;;;5086571;28;20394;-73
2023/08/23 02:44:38;;;;;;;1999.90;999.90;;;20.60;78.30;;;;;;5078853;28;20508;-72
2023/08/23 02:47:04;;;;;;;1999.90;999.90;;;20.50;78.80;;;;;;5072756;28;20028;-73
2023/08/23 02:49:30;;;;;;;1999.90;999.90;;;20.50;78.80;;;;;;5079520;28;20035;-73
2023/08/23 02:51:55;;;;;;;1999.90;999.90;;;20.50;78.60;;;;;;5081539;28;20512;-73
2023/08/23 02:54:21;;;;;;;1999.90;999.90;;;20.50;78.50;;;;;;5083371;28;20047;-74
2023/08/23 02:56:46;;;;;;;1999.90;999.90;;;20.50;78.00;;;;;;5076482;28;20479;-74
2023/08/23 02:59:13;;;;;;;1999.90;999.90;;;20.50;77.60;;;;;;5082720;28;20040;-73
2023/08/23 03:01:38;;;;;;;1999.90;999.90;;;20.50;77.20;;;;;;5076625;28;20028;-73
2023/08/23 03:04:04;;;;;;;1999.90;999.90;;;20.60;77.30;;;;;;5086693;28;20036;-73
2023/08/23 03:06:29;;;;;;;1999.90;999.90;;;20.60;77.00;;;;;;5081743;28;20028;-73
2023/08/23 03:08:55;;;;;;;1999.90;999.90;;;20.50;78.10;;;;;;5084751;28;20088;-73
2023/08/23 03:11:21;;;;;;;1999.90;999.90;;;20.40;78.50;;;;;;5082494;28;20044;-73
2023/08/23 03:13:46;;;;;;;1999.90;999.90;;;20.40;78.10;;;;;;5079197;28;20454;-74
2023/08/23 03:16:12;;;;;;;1999.90;999.90;;;20.40;78.10;;;;;;5082169;28;20495;-73
2023/08/23 03:18:37;;;;;;;1999.90;999.90;;;20.30;78.50;;;;;;5079285;28;20123;-74
2023/08/23 03:21:03;;;;;;;1999.90;999.90;;;20.20;79.00;;;;;;5079107;28;20422;-73
2023/08/23 03:23:29;;;;;;;1999.90;999.90;;;20.20;79.10;;;;;;5089326;28;20040;-72
2023/08/23 03:25:54;;;;;;;1999.90;999.90;;;20.20;79.10;;;;;;5094600;28;20021;-73
2023/08/23 03:28:20;;;;;;;1999.90;999.90;;;20.20;79.10;;;;;;5085245;28;20039;-73
2023/08/23 03:30:46;;;;;;;1999.90;999.90;;;20.00;79.70;;;;;;5082845;28;20028;-73
2023/08/23 03:33:11;;;;;;;1999.90;999.90;;;19.80;80.50;;;;;;5084964;28;20115;-73
2023/08/23 03:35:37;;;;;;;1999.90;999.90;;;19.90;80.90;;;;;;5080430;28;20059;-73
2023/08/23 03:38:03;;;;;;;1999.90;999.90;;;19.90;80.00;;;;;;5083159;28;20044;-74
2023/08/23 03:40:33;;;;;;;1999.90;999.90;;;19.80;80.00;;;;;;5077298;28;20390;-74
2023/08/23 03:42:58;;;;;;;;;;;19.90;80.20;;;;;;5079392;28;20101;-74
2023/08/23 03:45:24;;;;;;;1999.90;999.90;;;19.90;80.00;;;;;;5085668;28;20356;-73
2023/08/23 03:47:50;;;;;;;1999.90;999.90;;;19.90;80.00;;;;;;5069789;28;20563;-74
2023/08/23 03:50:15;;;;;;;1999.90;999.90;;;19.90;80.00;;;;;;5081342;28;20056;-73
2023/08/23 03:52:41;;;;;;;1999.90;999.90;;;19.70;81.00;;;;;;5082432;28;20024;-74
2023/08/23 03:55:07;;;;;;;1999.90;999.90;;;19.80;80.80;;;;;;5087551;28;20036;-73
2023/08/23 03:57:33;;;;;;;1999.90;999.90;;;19.70;80.80;;;;;;5081559;28;20078;-73
2023/08/23 03:59:59;;;;;;;1999.90;999.90;;;19.70;81.10;;;;;;5083884;28;20028;-73
2023/08/23 04:02:24;;;;;;;1999.90;999.90;;;19.80;80.70;;;;;;5085726;28;20035;-74
2023/08/23 04:04:50;;;;;;;1999.90;999.90;;;19.70;80.70;;;;;;5083926;28;20028;-74
2023/08/23 04:07:17;;;;;;;1999.90;999.90;;;19.70;80.60;;;;;;5085692;28;20028;-73
2023/08/23 04:09:42;;;;;;;1999.90;999.90;;;19.60;81.10;;;;;;5083624;28;20036;-73
2023/08/23 04:12:09;;;;;;;1999.90;999.90;;;19.70;80.50;;;;;;5081759;28;20040;-73
2023/08/23 04:14:35;;;;;;;1999.90;999.90;;;19.70;81.00;;;;;;5084987;28;20039;-73
2023/08/23 04:17:02;;;;;;;1999.90;999.90;;;19.70;80.80;;;;;;5082559;28;20081;-73
2023/08/23 04:19:27;;;;;;;1999.90;999.90;;;19.80;81.00;;;;;;5082573;28;20051;-74
2023/08/23 04:21:53;;;;;;;1999.90;999.90;;;19.90;80.70;;;;;;5081636;28;20474;-73
2023/08/23 04:24:20;;;;;;;1999.90;999.90;;;19.90;80.60;;;;;;5079528;28;20028;-73
2023/08/23 04:26:45;;;;;;;1999.90;999.90;;;20.00;81.00;;;;;;5086227;28;20728;-74
2023/08/23 04:29:11;;;;;;;1999.90;999.90;;;20.00;81.10;;;;;;5079167;28;20028;-73
2023/08/23 04:31:37;;;;;;;1999.90;999.90;;;20.10;80.80;;;;;;5081340;28;20040;-74
2023/08/23 04:34:04;;;;;;;1999.90;999.90;;;20.20;79.90;;;;;;5086146;28;20040;-74
2023/08/23 04:36:30;;;;;;;1999.90;999.90;;;20.50;78.30;;;;;;5083366;28;20033;-73
2023/08/23 04:38:56;;;;;;;1999.90;999.90;;;20.70;78.00;;;;;;5083824;28;20120;-73
2023/08/23 04:41:22;;;;;;;1999.90;999.90;;;20.70;77.70;;;;;;5084912;28;20468;-73
2023/08/23 04:43:48;;;;;;;1999.90;999.90;;;21.00;76.50;;;;;;5084111;28;20050;-74
2023/08/23 04:46:13;;;;;;;1999.90;999.90;;;21.10;75.70;;;;;;5083791;28;20032;-74
2023/08/23 04:48:39;;;;;;;1999.90;999.90;;;21.30;74.90;;;;;;5094246;28;20059;-73
2023/08/23 04:51:09;;;;;;;1999.90;999.90;;;21.50;74.50;;;;;;5085738;28;20036;-73
2023/08/23 04:53:35;;;;;;;1999.90;999.90;;;21.50;73.90;;;;;;5087735;28;20055;-74
2023/08/23 04:56:01;;;;;;;1999.90;999.90;;;21.60;73.70;;;;;;5088052;28;20055;-73
2023/08/23 04:58:30;;;;;;;1999.90;999.90;;;21.60;73.90;;;;;;5091349;28;20498;-73
2023/08/23 05:01:04;;;;;;;1999.90;999.90;;;21.70;73.40;;;;;;5085410;28;20095;-73
2023/08/23 05:03:30;;;;;;;1999.90;999.90;;;21.80;72.70;;;;;;5082893;28;20484;-73
2023/08/23 05:05:57;;;;;;;1999.90;999.90;;;21.90;72.40;;;;;;5087920;28;20036;-73
2023/08/23 05:08:23;;;;;;;1999.90;999.90;;;22.00;71.90;;;;;;5087561;28;20031;-74
2023/08/23 05:10:52;;;;;;;1999.90;999.90;;;22.10;72.10;;;;;;5085924;28;20044;-73
2023/08/23 05:13:18;;;;;;;1999.90;999.90;;;22.10;71.80;;;;;;5084769;28;20093;-74
2023/08/23 05:15:44;;;;;;;1999.90;999.90;;;22.20;71.90;;;;;;5083439;28;20432;-74
2023/08/23 05:18:10;;;;;;;1999.90;999.90;;;22.10;72.50;;;;;;5088418;28;20036;-74
2023/08/23 05:20:36;;;;;;;1999.90;999.90;;;22.10;73.10;;;;;;5085515;28;20082;-74
2023/08/23 05:23:02;;;;;;;1999.90;999.90;;;22.00;72.30;;;;;;5084850;28;20532;-73
2023/08/23 05:25:28;;;;;;;1999.90;999.90;;;21.90;73.20;;;;;;5085189;28;20056;-73
2023/08/23 05:27:54;;;;;;;1999.90;999.90;;;21.70;73.10;;;;;;5090857;28;20509;-74
2023/08/23 05:30:19;;;;;;;1999.90;999.90;;;21.60;73.40;;;;;;5087593;28;20032;-73
2023/08/23 05:32:45;;;;;;;1999.90;999.90;;;21.60;74.40;;;;;;5083511;28;20048;-73
2023/08/23 05:35:11;;;;;;;1999.90;999.90;;;21.50;75.70;;;;;;5087038;28;20047;-73
2023/08/23 05:37:36;;;;;;;1999.90;999.90;;;21.60;75.80;;;;;;5078346;28;20406;-73
2023/08/23 05:40:03;;;;;;;1999.90;999.90;;;21.60;75.60;;;;;;5085963;28;20055;-73
2023/08/23 05:42:30;;;;;;;1999.90;999.90;;;21.60;75.50;;;;;;5085445;28;20035;-73
2023/08/23 05:44:56;;;;;;;1999.90;999.90;;;21.50;76.80;;;;;;5083262;28;20024;-73
2023/08/23 05:47:22;;;;;;;1999.90;999.90;;;21.40;77.30;;;;;;5085535;28;20379;-74
2023/08/23 05:49:48;;;;;;;1999.90;999.90;;;21.40;77.30;;;;;;5079649;28;20490;-71
2023/08/23 05:52:13;;;;;;;1999.90;999.90;;;21.50;77.80;;;;;;5084013;28;20024;-73
2023/08/23 05:54:39;;;;;;;1999.90;999.90;;;21.60;77.40;;;;;;5082382;28;20044;-73
2023/08/23 05:57:05;;;;;;;1999.90;999.90;;;21.70;76.50;;;;;;5083404;28;20497;-73
2023/08/23 05:59:30;;;;;;;1999.90;999.90;;;21.90;75.60;;;;;;5080352;28;20029;-74
2023/08/23 06:01:56;;;;;;;1999.90;999.90;;;21.80;76.10;;;;;;5081989;28;20036;-73
2023/08/23 06:04:22;;;;;;;1999.90;999.90;;;21.80;76.20;;;;;;5088975;28;20051;-74
2023/08/23 06:06:47;;;;;;;1999.90;999.90;;;21.90;76.90;;;;;;5083262;28;20055;-73
2023/08/23 06:09:13;;;;;;;1999.90;999.90;;;22.10;74.90;;;;;;5081905;28;20032;-73
2023/08/23 06:11:39;;;;;;;1999.90;999.90;;;22.20;74.20;;;;;;5086057;28;20024;-72
2023/08/23 06:14:27;;;;;;;1999.90;999.90;;;22.20;73.90;;;;;;5084890;28;20052;-73
2023/08/23 06:16:52;;;;;;;1999.90;999.90;;;22.10;74.80;;;;;;5082084;28;20028;-72
2023/08/23 06:19:18;;;;;;;1999.90;999.90;;;22.20;73.60;;;;;;5078354;28;20547;-73
2023/08/23 06:21:44;;;;;;;1999.90;999.90;;;22.10;75.60;;;;;;5066687;28;20055;-73
2023/08/23 06:24:10;;;;;;;1999.90;999.90;;;22.10;75.30;;;;;;5084693;28;20432;-73
2023/08/23 06:26:36;;;;;;;1999.90;999.90;;;22.20;75.00;;;;;;5079737;28;20028;-72
2023/08/23 06:29:03;;;;;;;1999.90;999.90;;;22.30;74.40;;;;;;5086072;28;20494;-73
2023/08/23 06:31:30;;;;;;;1999.90;999.90;;;22.40;74.20;;;;;;5095086;28;20035;-72
2023/08/23 06:33:55;;;;;;;1999.90;999.90;;;22.70;73.50;;;;;;5092989;28;20282;-71
2023/08/23 06:36:21;;;;;;;1999.90;999.90;;;22.90;72.40;;;;;;5086159;28;20143;-72
2023/08/23 06:38:47;;;;;;;1999.90;999.90;;;22.80;71.90;;;;;;5081796;28;20143;-73
2023/08/23 06:41:13;;;;;;;1999.90;999.90;;;22.80;71.40;;;;;;5084966;28;20020;-73
2023/08/23 06:43:39;;;;;;;1999.90;999.90;;;22.70;71.60;;;;;;5086083;28;20024;-74
2023/08/23 06:46:05;;;;;;;1999.90;999.90;;;22.70;72.00;;;;;;5081242;28;20052;-74
2023/08/23 06:48:31;;;;;;;1999.90;999.90;;;22.70;72.70;;;;;;5084030;28;20067;-74
2023/08/23 06:51:00;;;;;;;1999.90;999.90;;;22.80;71.90;;;;;;5079801;28;20169;-73
2023/08/23 06:53:26;;;;;;;1999.90;999.90;;;23.00;72.50;;;;;;5083884;28;20703;-71
2023/08/23 06:55:51;;;;;;;1999.90;999.90;;;23.10;71.00;;;;;;5082459;28;20037;-68
2023/08/23 06:58:17;;;;;;;1999.90;999.90;;;23.10;69.70;;;;;;5082264;28;20094;-67
2023/08/23 07:00:43;;;;;;;1999.90;999.90;;;22.80;68.90;;;;;;5083937;28;20024;-67
2023/08/23 07:03:10;;;;;;;1999.90;999.90;;;22.70;69.90;;;;;;5085840;28;20510;-78
2023/08/23 07:05:36;;;;;;;1999.90;999.90;;;22.60;70.70;;;;;;5081124;28;20028;-69
2023/08/23 07:08:02;;;;;;;1999.90;999.90;;;22.70;70.90;;;;;;5082040;28;20498;-69
2023/08/23 07:10:29;;;;;;;1999.90;999.90;;;23.00;72.60;;;;;;5079578;28;20028;-72
2023/08/23 07:12:56;;;;;;;1999.90;999.90;;;23.10;69.90;;;;;;5085474;28;20482;-74
2023/08/23 07:15:23;;;;;;;1999.90;999.90;;;23.20;69.60;;;;;;5081000;28;20406;-74
2023/08/23 07:17:49;;;;;;;1999.90;999.90;;;23.40;70.50;;;;;;5086337;28;20039;-77
2023/08/23 07:20:15;;;;;;;1999.90;999.90;;;23.40;68.90;;;;;;5084283;28;20115;-72
2023/08/23 07:22:42;;;;;;;1999.90;999.90;;;23.60;70.20;;;;;;5086159;28;20032;-72
2023/08/23 07:25:08;;;;;;;1999.90;999.90;;;23.60;67.50;;;;;;5082721;28;20044;-72
2023/08/23 07:27:34;;;;;;;1999.90;999.90;;;23.90;67.30;;;;;;5084330;28;20069;-72
2023/08/23 07:30:00;;;;;;;1999.90;999.90;;;23.70;67.40;;;;;;5084559;28;20028;-72
2023/08/23 07:32:30;;;;;;;1999.90;999.90;;;23.70;69.60;;;;;;5081819;28;20035;-74
2023/08/23 07:34:56;;;;;;;;;;;23.60;68.90;;;;;;5083573;28;20029;-76
2023/08/23 07:37:22;;;;;;;1999.90;999.90;;;24.00;67.40;;;;;;5083576;28;19957;-76
2023/08/23 07:39:48;;;;;;;1999.90;999.90;;;24.00;67.70;;;;;;5078407;28;20474;-74
2023/08/23 07:42:14;;;;;;;1999.90;999.90;;;24.40;67.20;;;;;;5083291;28;20063;-72
2023/08/23 07:44:42;;;;;;;1999.90;999.90;;;24.30;66.80;;;;;;5082110;28;20056;-79
2023/08/23 07:47:09;;;;;;;1999.90;999.90;;;24.40;66.20;;;;;;5077180;28;20043;-80
2023/08/23 07:49:35;;;;;;;1999.90;999.90;;;24.60;65.60;;;;;;5077578;28;20036;-79
2023/08/23 07:52:02;;;;;;;1999.90;999.90;;;24.60;66.80;;;;;;5077432;28;20033;-76
2023/08/23 07:54:27;;;;;;;1999.90;999.90;;;24.70;65.00;;;;;;5080508;28;20418;-78
2023/08/23 07:56:53;;;;;;;1999.90;999.90;;;24.90;65.20;;;;;;5077877;28;20047;-76
2023/08/23 07:59:19;;;;;;;1999.90;999.90;;;25.30;63.80;;;;;;5077713;28;20085;-74
2023/08/23 08:01:44;;;;;;;1999.90;999.90;;;25.70;64.20;;;;;;5079198;28;20506;-70
2023/08/23 08:04:10;;;;;;;1999.90;999.90;;;26.20;61.30;;;;;;5074206;28;20143;-72
2023/08/23 08:06:35;;;;;;;1999.90;999.90;;;26.10;61.00;;;;;;5082768;28;20123;-76
2023/08/23 08:09:01;;;;;;;1999.90;999.90;;;26.40;60.10;;;;;;5079189;28;20075;-70
2023/08/23 08:11:27;;;;;;;1999.90;999.90;;;26.30;59.50;;;;;;5081891;28;20684;-70
2023/08/23 08:13:52;;;;;;;1999.90;999.90;;;25.80;62.80;;;;;;5083674;28;20829;-70
2023/08/23 08:16:18;;;;;;;1999.90;999.90;;;25.80;62.90;;;;;;5080845;28;20032;-70
2023/08/23 08:18:44;;;;;;;1999.90;999.90;;;25.60;62.70;;;;;;5076556;28;20039;-70
2023/08/23 08:21:10;;;;;;;1999.90;999.90;;;25.60;63.70;;;;;;5085213;28;20337;-70
2023/08/23 08:23:36;;;;;;;1999.90;999.90;;;25.40;63.10;;;;;;5084453;28;20059;-70
2023/08/23 08:26:02;;;;;;;1999.90;999.90;;;25.30;63.30;;;;;;5084967;28;20085;-70
2023/08/23 08:28:28;;;;;;;1999.90;999.90;;;25.30;66.20;;;;;;5085943;28;20104;-70
2023/08/23 08:30:53;;;;;;;1999.90;999.90;;;25.40;63.60;;;;;;5085168;28;20427;-71
2023/08/23 08:33:20;;;;;;;1999.90;999.90;;;25.60;63.00;;;;;;5083852;28;20116;-71
2023/08/23 08:35:45;;;;;;;1999.90;999.90;;;26.10;63.30;;;;;;5094758;28;20103;-70
2023/08/23 08:38:11;;;;;;;1999.90;999.90;;;26.50;61.40;;;;;;5094613;28;20070;-70
2023/08/23 08:40:37;;;;;;;1999.90;999.90;;;26.20;62.50;;;;;;5086611;28;20028;-70
2023/08/23 08:43:03;;;;;;;1999.90;999.90;;;26.50;59.30;;;;;;5082536;28;20040;-70
2023/08/23 08:45:29;;;;;;;1999.90;999.90;;;26.50;58.70;;;;;;5085627;28;20398;-70
2023/08/23 08:47:55;;;;;;;1999.90;999.90;;;26.60;60.10;;;;;;5080485;28;20115;-71
2023/08/23 08:50:20;;;;;;;1999.90;999.90;;;26.90;58.90;;;;;;5078620;28;20119;-70
2023/08/23 08:52:50;;;;;;;1999.90;999.90;;;26.70;59.40;;;;;;5079364;28;20043;-71
2023/08/23 08:55:18;;;;;;;1999.90;999.90;;;26.80;57.80;;;;;;5085901;28;20512;-71
2023/08/23 08:57:45;;;;;;;1999.90;999.90;;;26.90;59.50;;;;;;5084017;28;20062;-70
2023/08/23 09:00:12;;;;;;;1999.90;999.90;;;27.20;57.70;;;;;;5087344;28;20046;-70
2023/08/23 09:02:39;;;;;;;1999.90;999.90;;;27.20;57.30;;;;;;5089675;28;20039;-70
2023/08/23 09:05:06;;;;;;;1999.90;999.90;;;27.30;56.50;;;;;;5086543;28;20038;-71
2023/08/23 09:07:32;;;;;;;1999.90;999.90;;;27.20;56.60;;;;;;5086110;28;20061;-70
2023/08/23 09:09:58;;;;;;;1999.90;999.90;;;27.50;55.90;;;;;;5085220;28;20097;-70
2023/08/23 09:12:24;;;;;;;1999.90;999.90;;;27.30;56.70;;;;;;5083261;28;20528;-70
2023/08/23 09:14:50;;;;;;;1999.90;999.90;;;27.70;56.40;;;;;;5084856;28;20032;-70
2023/08/23 09:17:20;;;;;;;1999.90;999.90;;;27.50;55.30;;;;;;5085045;28;20374;-70
2023/08/23 09:19:45;;;;;;;1999.90;999.90;;;27.50;51.50;;;;;;5083678;28;20089;-70
2023/08/23 09:22:11;;;;;;;1999.90;999.90;;;27.70;54.70;;;;;;5085687;28;20147;-70
2023/08/23 09:24:36;;;;;;;1999.90;999.90;;;27.80;51.50;;;;;;5088080;28;20052;-70
2023/08/23 09:27:03;;;;;;;1999.90;999.90;;;28.00;50.40;;;;;;5087519;28;20036;-70
2023/08/23 09:29:28;;;;;;;1999.90;999.90;;;28.10;48.80;;;;;;5086439;28;20028;-70
2023/08/23 09:31:58;;;;;;;1999.90;999.90;;;28.20;49.40;;;;;;5083087;28;20043;-71
2023/08/23 09:34:23;;;;;;;1999.90;999.90;;;28.30;50.60;;;;;;5083124;28;20041;-70
2023/08/23 09:36:49;;;;;;;1999.90;999.90;;;28.60;50.70;;;;;;5085801;28;20032;-70
2023/08/23 09:39:18;;;;;;;1999.90;999.90;;;28.80;50.10;;;;;;5088609;28;20482;-70
2023/08/23 09:41:43;;;;;;;1999.90;999.90;;;29.00;47.70;;;;;;5081979;28;20343;-70
2023/08/23 09:44:09;;;;;;;1999.90;999.90;;;29.50;46.00;;;;;;5079578;28;20050;-70
2023/08/23 09:46:37;;;;;;;1999.90;999.90;;;29.40;47.80;;;;;;5088957;28;20028;-71
2023/08/23 09:49:07;;;;;;;1999.90;999.90;;;29.10;46.40;;;;;;5089569;28;20085;-71
2023/08/23 09:51:37;;;;;;;1999.90;999.90;;;29.10;47.10;;;;;;5089811;28;20031;-70
2023/08/23 09:54:09;;;;;;;1999.90;999.90;;;29.30;50.50;;;;;;5088250;28;20052;-70
2023/08/23 09:56:36;;;;;;;1999.90;999.90;;;29.80;49.20;;;;;;5088427;28;20039;-70
2023/08/23 09:59:02;;;;;;;1999.90;999.90;;;29.70;49.30;;;;;;5088422;28;20089;-70
2023/08/23 10:01:28;;;;;;;1999.90;999.90;;;29.80;48.00;;;;;;5089302;28;20371;-71
2023/08/23 10:03:55;;;;;;;1999.90;999.90;;;29.80;46.70;;;;;;5091106;28;20024;-70
2023/08/23 10:06:22;;;;;;;1999.90;999.90;;;29.80;47.40;;;;;;5090733;28;20032;-70
2023/08/23 10:08:48;;;;;;;1999.90;999.90;;;30.00;46.20;;;;;;5089807;28;20036;-70
2023/08/23 10:11:18;;;;;;;1999.90;999.90;;;30.50;46.50;;;;;;5090066;28;20032;-71
2023/08/23 10:13:44;;;;;;;1999.90;999.90;;;30.20;44.90;;;;;;5089879;28;20478;-70
2023/08/23 10:16:13;;;;;;;1999.90;999.90;;;30.10;45.60;;;;;;5091375;28;20040;-70
2023/08/23 10:18:39;;;;;;;1999.90;999.90;;;30.20;45.20;;;;;;5087750;28;20474;-71
2023/08/23 10:21:05;;;;;;;1999.90;999.90;;;30.00;47.60;;;;;;5091298;28;20055;-71
2023/08/23 10:23:34;;;;;;;1999.90;999.90;;;30.30;47.10;;;;;;5093232;28;20390;-70
2023/08/23 10:26:01;;;;;;;1999.90;999.90;;;30.30;45.60;;;;;;5086706;28;20032;-70
2023/08/23 10:28:27;;;;;;;1999.90;999.90;;;30.50;45.60;;;;;;5083582;28;20043;-71
2023/08/23 10:30:59;;;;;;;1999.90;999.90;;;30.70;48.20;;;;;;5070561;28;20044;-70
2023/08/23 10:33:25;;;;;;;1999.90;999.90;;;31.00;45.50;;;;;;5084883;28;20434;-71
2023/08/23 10:35:51;;;;;;;1999.90;999.90;;;31.20;44.30;;;;;;5091083;28;20078;-70
2023/08/23 10:38:17;;;;;;;1999.90;999.90;;;30.80;43.80;;;;;;5090859;28;20085;-71
2023/08/23 10:40:48;;;;;;;1999.90;999.90;;;30.70;44.40;;;;;;5091133;28;20034;-71
2023/08/23 10:43:18;;;;;;;1999.90;999.90;;;30.50;45.90;;;;;;5087700;28;20029;-70
2023/08/23 10:45:56;;;;;;;1999.90;999.90;;;31.20;47.00;;;;;;5092432;28;20375;-71
2023/08/23 10:48:23;;;;;;;1999.90;999.90;;;30.80;44.60;;;;;;5089356;28;20459;-71
2023/08/23 10:50:50;;;;;;;1999.90;999.90;;;31.10;45.20;;;;;;5089885;28;20028;-71
2023/08/23 10:53:17;;;;;;;1999.90;999.90;;;31.70;43.60;;;;;;5089167;28;20766;-71
2023/08/23 10:55:43;;;;;;;1999.90;999.90;;;31.60;41.40;;;;;;5091593;28;20513;-71
2023/08/23 10:58:09;;;;;;;1999.90;999.90;;;31.70;41.00;;;;;;5086379;28;20115;-71
2023/08/23 11:00:36;;;;;;;1999.90;999.90;;;32.00;41.40;;;;;;5089173;28;20193;-71
2023/08/23 11:03:04;;;;;;;1999.90;999.90;;;32.30;39.80;;;;;;5091336;28;20519;-71
2023/08/23 11:05:29;;;;;;;1999.90;999.90;;;32.20;41.10;;;;;;5089376;28;20039;-71
2023/08/23 11:07:57;;;;;;;1999.90;999.90;;;32.10;39.80;;;;;;5087325;28;20237;-71
2023/08/23 11:10:25;;;;;;;1999.90;999.90;;;32.30;39.40;;;;;;5088113;28;20032;-71
2023/08/23 11:12:51;;;;;;;1999.90;999.90;;;33.20;36.80;;;;;;5099461;28;20016;-71
2023/08/23 11:15:17;;;;;;;1999.90;999.90;;;33.50;36.00;;;;;;5087493;28;20036;-71
2023/08/23 11:17:42;;;;;;;1999.90;999.90;;;33.90;36.10;;;;;;5087193;28;20508;-71
2023/08/23 11:20:10;;;;;;;1999.90;999.90;;;33.50;36.20;;;;;;5087720;28;20097;-71
2023/08/23 11:22:36;;;;;;;1999.90;999.90;;;33.90;36.00;;;;;;5088900;28;20048;-70
2023/08/23 11:25:02;;;;;;;1999.90;999.90;;;33.50;35.20;;;;;;5085515;28;20032;-70
2023/08/23 11:27:28;;;;;;;1999.90;999.90;;;33.00;38.90;;;;;;5087590;28;20024;-71
2023/08/23 11:30:00;;;;;;;1999.90;999.90;;;32.80;38.20;;;;;;5089845;28;20036;-71
2023/08/23 11:32:26;;;;;;;1999.90;999.90;;;32.90;40.50;;;;;;5088941;28;20501;-71
2023/08/23 11:34:54;;;;;;;1999.90;999.90;;;33.50;38.70;;;;;;5088639;28;20023;-71
2023/08/23 11:37:22;;;;;;;1999.90;999.90;;;33.50;39.10;;;;;;5089500;28;20031;-71
2023/08/23 11:39:56;;;;;;;1999.90;999.90;;;33.70;36.70;;;;;;5085921;28;20043;-71
2023/08/23 11:42:22;;;;;;;1999.90;999.90;;;34.20;34.60;;;;;;5088293;28;20063;-71
2023/08/23 11:44:48;;;;;;;1999.90;999.90;;;34.30;36.50;;;;;;5087795;28;20035;-71
2023/08/23 11:47:13;;;;;;;1999.90;999.90;;;35.20;33.30;;;;;;5089540;28;20036;-71
2023/08/23 11:49:39;;;;;;;1999.90;999.90;;;34.90;33.60;;;;;;5085929;28;20054;-71
2023/08/23 11:52:04;;;;;;;1999.90;999.90;;;34.30;35.50;;;;;;5082341;28;20131;-71
2023/08/23 11:54:30;;;;;;;1999.90;999.90;;;34.70;36.60;;;;;;5084904;28;20055;-71
2023/08/23 11:57:00;;;;;;;1999.90;999.90;;;35.10;35.50;;;;;;5088307;28;20034;-71
2023/08/23 11:59:26;;;;;;;1999.90;999.90;;;34.60;35.90;;;;;;5087512;28;20486;-71